Time;durP1;ratioP1;P1;durP2;ratioP2;P2;SDS_P1;SDS_P2;PMS_P1;PMS_P2;Temp;Humidity;BMP_temperature;BMP_pressure;BME280_temperature;BME280_humidity;BME280_pressure;Samples;Min_cycle;Max_cycle;Signal;HPM_P1;HPM_P2
2021/11/05 00:00:53;;;;;;;90.63;42.72;;;13.20;91.50;;;;;;5056682;28;20033;-36
2021/11/05 00:03:19;;;;;;;114.28;46.25;;;13.20;91.70;;;;;;5056288;28;20033;-36
2021/11/05 00:05:44;;;;;;;88.07;42.22;;;13.20;91.80;;;;;;5056494;28;20037;-36
2021/11/05 00:08:10;;;;;;;141.65;62.40;;;13.20;91.80;;;;;;5056362;28;20090;-36
2021/11/05 00:10:42;;;;;;;110.03;47.78;;;13.20;92.20;;;;;;5056964;28;20467;-37
2021/11/05 00:13:09;;;;;;;127.30;59.50;;;13.30;92.50;;;;;;5056213;28;20035;-38
2021/11/05 00:15:35;;;;;;;121.85;60.72;;;13.30;92.90;;;;;;5056728;28;20393;-36
2021/11/05 00:18:00;;;;;;;147.05;72.85;;;13.40;93.10;;;;;;5056367;28;20033;-36
2021/11/05 00:20:27;;;;;;;189.98;101.43;;;13.50;93.50;;;;;;5056630;28;20425;-37
2021/11/05 00:22:53;;;;;;;151.25;79.57;;;13.50;93.80;;;;;;5055883;28;20060;-36
2021/11/05 00:25:20;;;;;;;133.15;65.10;;;13.60;93.90;;;;;;5056134;28;20029;-35
2021/11/05 00:27:45;;;;;;;93.93;46.67;;;13.60;94.10;;;;;;5055959;28;20033;-35
2021/11/05 00:30:12;;;;;;;102.47;53.53;;;13.70;94.10;;;;;;5056334;28;20309;-37
2021/11/05 00:32:39;;;;;;;100.38;52.40;;;13.70;94.20;;;;;;5055700;28;20036;-36
2021/11/05 00:35:05;;;;;;;89.05;44.80;;;13.70;94.20;;;;;;5056391;28;20025;-36
2021/11/05 00:37:30;;;;;;;91.25;48.97;;;13.80;94.20;;;;;;5055947;28;20032;-36
2021/11/05 00:39:56;;;;;;;72.72;41.50;;;13.80;94.10;;;;;;5056407;28;20029;-35
2021/11/05 00:42:22;;;;;;;87.78;44.47;;;13.80;94.10;;;;;;5055651;28;20037;-37
2021/11/05 00:44:49;;;;;;;71.07;38.33;;;13.90;94.10;;;;;;5056112;28;20377;-36
2021/11/05 00:47:15;;;;;;;76.00;43.85;;;13.90;94.00;;;;;;5055847;28;20035;-36
2021/11/05 00:49:42;;;;;;;67.07;39.35;;;13.90;94.00;;;;;;5055979;28;20032;-36
2021/11/05 00:52:08;;;;;;;74.82;44.22;;;13.90;94.00;;;;;;5055396;28;20032;-36
2021/11/05 00:54:34;;;;;;;66.32;36.22;;;13.90;94.10;;;;;;5055735;28;20041;-38
2021/11/05 00:57:00;;;;;;;61.17;34.78;;;14.00;94.30;;;;;;5055725;28;20373;-37
2021/11/05 00:59:26;;;;;;;54.47;28.92;;;14.00;94.10;;;;;;5054635;28;20047;-36
2021/11/05 01:01:52;;;;;;;58.83;34.75;;;14.00;94.10;;;;;;5055189;28;20037;-36
2021/11/05 01:04:17;;;;;;;71.53;42.28;;;14.00;94.10;;;;;;5055936;28;20041;-37
2021/11/05 01:06:43;;;;;;;83.88;52.65;;;14.00;94.00;;;;;;5055275;28;20036;-36
2021/11/05 01:09:09;;;;;;;60.03;34.60;;;14.00;94.00;;;;;;5055791;28;20029;-35
2021/11/05 01:11:34;;;;;;;54.97;32.03;;;14.10;94.00;;;;;;5055642;28;20025;-36
2021/11/05 01:14:01;;;;;;;75.68;44.90;;;14.10;93.90;;;;;;5055446;28;20040;-36
2021/11/05 01:16:27;;;;;;;81.28;49.22;;;14.10;94.00;;;;;;5055560;28;20112;-38
2021/11/05 01:18:52;;;;;;;74.63;47.45;;;14.10;93.90;;;;;;5055384;28;20106;-36
2021/11/05 01:21:18;;;;;;;70.72;43.25;;;14.10;93.90;;;;;;5055295;28;20044;-36
2021/11/05 01:23:44;;;;;;;61.95;37.80;;;14.10;93.90;;;;;;5055461;28;20086;-36
2021/11/05 01:26:09;;;;;;;61.33;38.42;;;14.10;93.90;;;;;;5055420;28;20033;-36
2021/11/05 01:28:35;;;;;;;62.78;38.83;;;14.20;94.00;;;;;;5055336;28;20021;-36
2021/11/05 01:31:01;;;;;;;60.17;35.80;;;14.20;93.90;;;;;;5055301;28;20064;-36
2021/11/05 01:33:27;;;;;;;48.83;31.30;;;14.20;93.90;;;;;;5055164;28;20071;-36
2021/11/05 01:35:53;;;;;;;45.50;29.10;;;14.20;93.80;;;;;;5056941;28;20037;-36
2021/11/05 01:38:19;;;;;;;45.67;29.35;;;14.20;93.80;;;;;;5059341;28;20029;-36
2021/11/05 01:40:46;;;;;;;38.55;24.08;;;14.20;93.80;;;;;;5059112;28;20113;-36
2021/11/05 01:43:13;;;;;;;34.20;21.10;;;14.30;93.80;;;;;;5059267;28;20033;-36
2021/11/05 01:45:41;;;;;;;36.33;21.52;;;14.30;93.80;;;;;;5059347;28;20056;-36
2021/11/05 01:48:07;;;;;;;34.05;20.90;;;14.30;93.70;;;;;;5059085;28;20029;-36
2021/11/05 01:50:33;;;;;;;37.10;23.05;;;14.30;93.70;;;;;;5059548;28;20060;-37
2021/11/05 01:52:59;;;;;;;39.53;23.60;;;14.30;93.60;;;;;;5059257;28;20065;-36
2021/11/05 01:55:25;;;;;;;30.90;21.08;;;14.30;93.60;;;;;;5058854;28;20480;-38
2021/11/05 01:57:51;;;;;;;34.78;20.05;;;14.30;93.60;;;;;;5058730;28;20119;-36
2021/11/05 02:00:20;;;;;;;36.70;21.85;;;14.30;93.60;;;;;;5059399;28;20312;-37
2021/11/05 02:02:47;;;;;;;33.95;20.63;;;14.30;93.70;;;;;;5058767;28;20036;-36
2021/11/05 02:05:13;;;;;;;31.20;20.67;;;14.30;93.60;;;;;;5059220;28;20029;-36
2021/11/05 02:07:44;;;;;;;32.92;21.10;;;14.30;93.60;;;;;;5058636;28;20468;-36
2021/11/05 02:10:09;;;;;;;;;;;14.30;93.70;;;;;;5059546;28;20027;-37
2021/11/05 02:12:35;;;;;;;32.05;20.63;;;14.30;93.50;;;;;;5058797;28;20305;-36
2021/11/05 02:15:02;;;;;;;34.45;23.55;;;14.30;93.80;;;;;;5059105;28;20155;-37
2021/11/05 02:17:28;;;;;;;37.58;22.88;;;14.30;93.80;;;;;;5058326;28;20029;-36
2021/11/05 02:19:57;;;;;;;38.38;24.33;;;14.30;93.80;;;;;;5058812;28;20029;-36
2021/11/05 02:22:23;;;;;;;37.95;23.00;;;14.30;93.80;;;;;;5058465;28;20025;-36
2021/11/05 02:24:49;;;;;;;38.65;25.40;;;14.30;93.80;;;;;;5058767;28;20401;-36
2021/11/05 02:27:15;;;;;;;36.17;22.38;;;14.30;93.80;;;;;;5058201;28;20039;-36
2021/11/05 02:29:40;;;;;;;38.20;23.42;;;14.30;93.80;;;;;;5058643;28;20332;-36
2021/11/05 02:32:07;;;;;;;39.65;28.02;;;14.30;93.80;;;;;;5058076;28;20240;-37
2021/11/05 02:34:33;;;;;;;40.80;25.65;;;14.30;93.90;;;;;;5058460;28;20025;-36
2021/11/05 02:37:02;;;;;;;43.25;25.13;;;14.30;93.90;;;;;;5058315;28;20297;-38
2021/11/05 02:39:28;;;;;;;33.80;21.65;;;14.30;93.90;;;;;;5058311;28;20472;-36
2021/11/05 02:41:54;;;;;;;36.22;21.05;;;14.30;94.10;;;;;;5058128;28;20079;-37
2021/11/05 02:44:20;;;;;;;33.28;18.98;;;14.30;93.90;;;;;;5058349;28;20105;-36
2021/11/05 02:46:46;;;;;;;32.10;19.58;;;14.30;94.00;;;;;;5057259;28;20449;-36
2021/11/05 02:49:15;;;;;;;38.67;21.20;;;14.30;93.90;;;;;;5058133;28;20032;-37
2021/11/05 02:51:40;;;;;;;31.65;18.85;;;14.30;94.00;;;;;;5057671;28;20033;-36
2021/11/05 02:54:07;;;;;;;34.00;20.80;;;14.30;94.00;;;;;;5058032;28;20028;-38
2021/11/05 02:56:34;;;;;;;38.67;26.75;;;14.30;94.00;;;;;;5057728;28;20045;-38
2021/11/05 02:58:59;;;;;;;36.97;23.30;;;14.30;94.00;;;;;;5058221;28;20416;-37
2021/11/05 03:01:26;;;;;;;33.72;22.33;;;14.30;94.00;;;;;;5057838;28;20064;-36
2021/11/05 03:03:52;;;;;;;30.55;20.63;;;14.30;94.00;;;;;;5057816;28;20053;-36
2021/11/05 03:06:18;;;;;;;31.80;19.48;;;14.30;94.00;;;;;;5057702;28;20114;-36
2021/11/05 03:08:43;;;;;;;35.40;20.30;;;14.30;94.00;;;;;;5057360;28;20110;-36
2021/11/05 03:11:12;;;;;;;36.33;21.42;;;14.30;94.00;;;;;;5057665;28;20060;-37
2021/11/05 03:13:43;;;;;;;37.33;22.45;;;14.30;94.00;;;;;;5057549;28;20130;-37
2021/11/05 03:16:10;;;;;;;34.28;22.92;;;14.30;94.00;;;;;;5057609;28;20110;-36
2021/11/05 03:18:41;;;;;;;32.40;21.63;;;14.30;94.00;;;;;;5057350;28;20430;-36
2021/11/05 03:21:08;;;;;;;31.63;20.08;;;14.30;94.00;;;;;;5057365;28;20068;-37
2021/11/05 03:23:35;;;;;;;36.25;19.80;;;14.30;94.10;;;;;;5057024;28;20043;-36
2021/11/05 03:26:01;;;;;;;34.15;20.65;;;14.30;94.10;;;;;;5057318;28;20052;-37
2021/11/05 03:28:27;;;;;;;39.17;23.90;;;14.30;94.20;;;;;;5057186;28;20021;-37
2021/11/05 03:30:52;;;;;;;33.97;21.85;;;14.30;94.30;;;;;;5057249;28;20060;-36
2021/11/05 03:33:18;;;;;;;31.85;20.58;;;14.30;94.30;;;;;;5056909;28;20025;-37
2021/11/05 03:35:43;;;;;;;37.13;22.90;;;14.30;94.30;;;;;;5057040;28;20112;-36
2021/11/05 03:38:09;;;;;;;38.67;24.17;;;14.30;94.40;;;;;;5057096;28;20040;-37
2021/11/05 03:40:36;;;;;;;37.85;22.75;;;14.20;94.40;;;;;;5057605;28;20056;-37
2021/11/05 03:43:03;;;;;;;38.95;25.02;;;14.20;94.40;;;;;;5056847;28;20094;-36
2021/11/05 03:45:28;;;;;;;35.55;22.35;;;14.30;94.50;;;;;;5057315;28;20091;-36
2021/11/05 03:47:54;;;;;;;36.53;22.40;;;14.30;94.50;;;;;;5056974;28;20033;-37
2021/11/05 03:50:20;;;;;;;28.85;19.65;;;14.20;94.50;;;;;;5057215;28;20098;-37
2021/11/05 03:52:46;;;;;;;33.85;21.90;;;14.30;94.50;;;;;;5056398;28;20025;-37
2021/11/05 03:55:12;;;;;;;32.50;20.65;;;14.30;94.50;;;;;;5056592;28;20057;-38
2021/11/05 03:57:38;;;;;;;32.17;20.35;;;14.30;94.50;;;;;;5056017;28;20037;-36
2021/11/05 04:00:08;;;;;;;34.00;20.55;;;14.30;94.50;;;;;;5056495;28;20036;-37
2021/11/05 04:02:34;;;;;;;;;;;14.30;94.50;;;;;;5056663;28;20036;-38
2021/11/05 04:05:00;;;;;;;25.02;16.02;;;14.30;94.30;;;;;;5056875;28;19916;-37
2021/11/05 04:07:26;;;;;;;26.80;15.02;;;14.30;94.60;;;;;;5056627;28;20025;-38
2021/11/05 04:09:52;;;;;;;26.42;16.45;;;14.30;94.70;;;;;;5056802;28;20028;-38
2021/11/05 04:12:18;;;;;;;28.42;17.05;;;14.30;94.70;;;;;;5056082;28;20033;-36
2021/11/05 04:14:44;;;;;;;32.10;19.10;;;14.30;94.70;;;;;;5056454;28;20034;-34
2021/11/05 04:17:10;;;;;;;28.02;18.40;;;14.30;94.70;;;;;;5056212;28;20442;-36
2021/11/05 04:19:35;;;;;;;30.23;18.92;;;14.30;94.70;;;;;;5056307;28;20272;-36
2021/11/05 04:22:01;;;;;;;28.42;16.48;;;14.40;94.80;;;;;;5056254;28;20372;-36
2021/11/05 04:24:27;;;;;;;31.73;18.95;;;14.40;94.80;;;;;;5056405;28;20039;-36
2021/11/05 04:26:53;;;;;;;32.45;21.95;;;14.40;94.80;;;;;;5056048;28;20115;-37
2021/11/05 04:29:19;;;;;;;30.77;21.25;;;14.40;94.80;;;;;;5056217;28;20039;-36
2021/11/05 04:31:45;;;;;;;28.42;19.08;;;14.40;94.70;;;;;;5055902;28;20037;-36
2021/11/05 04:34:10;;;;;;;33.80;22.15;;;14.40;94.80;;;;;;5056294;28;20313;-36
2021/11/05 04:36:37;;;;;;;34.97;23.95;;;14.40;94.80;;;;;;5055094;28;20037;-36
2021/11/05 04:39:04;;;;;;;30.13;19.05;;;14.40;94.70;;;;;;5056187;28;20037;-35
2021/11/05 04:41:30;;;;;;;31.98;19.20;;;14.40;94.70;;;;;;5055451;28;20055;-36
2021/11/05 04:43:55;;;;;;;33.33;21.15;;;14.40;94.80;;;;;;5055962;28;20029;-35
2021/11/05 04:46:21;;;;;;;34.53;22.60;;;14.50;94.80;;;;;;5056033;28;20306;-36
2021/11/05 04:48:47;;;;;;;37.72;22.75;;;14.50;94.80;;;;;;5055688;28;20025;-36
2021/11/05 04:51:13;;;;;;;32.70;21.15;;;14.50;94.80;;;;;;5055739;28;20376;-37
2021/11/05 04:53:39;;;;;;;31.65;21.23;;;14.50;94.80;;;;;;5055879;28;20029;-36
2021/11/05 04:56:05;;;;;;;32.60;19.90;;;14.50;94.70;;;;;;5056056;28;20098;-36
2021/11/05 04:58:31;;;;;;;29.25;17.15;;;14.50;94.80;;;;;;5055611;28;20036;-36
2021/11/05 05:00:57;;;;;;;34.80;18.25;;;14.50;94.70;;;;;;5055426;28;20431;-37
2021/11/05 05:03:23;;;;;;;36.25;20.20;;;14.50;94.70;;;;;;5055400;28;20043;-36
2021/11/05 05:05:49;;;;;;;30.65;19.45;;;14.60;94.70;;;;;;5055824;28;20122;-37
2021/11/05 05:08:15;;;;;;;33.15;18.70;;;14.60;94.70;;;;;;5055101;28;20032;-36
2021/11/05 05:10:41;;;;;;;35.88;21.13;;;14.60;94.70;;;;;;5058930;28;20025;-36
2021/11/05 05:13:06;;;;;;;36.00;18.75;;;14.60;94.60;;;;;;5061812;28;20436;-37
2021/11/05 05:15:32;;;;;;;40.47;22.60;;;14.60;94.60;;;;;;5062410;28;20037;-35
2021/11/05 05:17:58;;;;;;;41.08;21.02;;;14.60;94.60;;;;;;5062057;28;20040;-35
2021/11/05 05:20:24;;;;;;;41.03;21.25;;;14.60;94.70;;;;;;5062479;28;20029;-36
2021/11/05 05:22:49;;;;;;;36.25;19.20;;;14.60;94.70;;;;;;5061931;28;20035;-36
2021/11/05 05:25:17;;;;;;;40.05;19.90;;;14.60;94.70;;;;;;5062364;28;20025;-38
2021/11/05 05:27:44;;;;;;;36.53;19.77;;;14.60;94.70;;;;;;5061916;28;20029;-38
2021/11/05 05:30:12;;;;;;;35.72;20.90;;;14.60;94.70;;;;;;5062304;28;20041;-37
2021/11/05 05:32:42;;;;;;;38.53;20.67;;;14.60;94.70;;;;;;5061572;28;20029;-37
2021/11/05 05:35:09;;;;;;;40.47;20.60;;;14.60;94.70;;;;;;5062395;28;20028;-35
2021/11/05 05:37:34;;;;;;;43.42;22.45;;;14.60;94.70;;;;;;5061820;28;20044;-36
2021/11/05 05:40:00;;;;;;;41.90;21.50;;;14.60;94.70;;;;;;5062345;28;20026;-37
2021/11/05 05:42:26;;;;;;;48.05;23.65;;;14.60;94.70;;;;;;5061443;28;20041;-37
2021/11/05 05:44:52;;;;;;;42.88;22.38;;;14.60;94.70;;;;;;5062023;28;20037;-36
2021/11/05 05:47:17;;;;;;;46.78;23.45;;;14.60;94.70;;;;;;5061590;28;20079;-37
2021/11/05 05:49:43;;;;;;;44.28;24.75;;;14.60;94.80;;;;;;5061558;28;20029;-39
2021/11/05 05:52:08;;;;;;;44.67;23.52;;;14.60;94.80;;;;;;5061610;28;20067;-36
2021/11/05 05:54:34;;;;;;;40.22;22.40;;;14.60;94.90;;;;;;5061870;28;20406;-37
2021/11/05 05:57:00;;;;;;;40.13;23.02;;;14.70;94.90;;;;;;5061600;28;20033;-39
2021/11/05 05:59:26;;;;;;;40.40;21.55;;;14.60;94.90;;;;;;5059563;28;20049;-36
2021/11/05 06:01:52;;;;;;;42.75;21.05;;;14.70;94.90;;;;;;5057409;28;20037;-38
2021/11/05 06:04:19;;;;;;;42.85;24.92;;;14.70;94.90;;;;;;5060292;28;20044;-39
2021/11/05 06:06:45;;;;;;;38.47;22.45;;;14.70;94.90;;;;;;5043834;28;20049;-37
2021/11/05 06:09:11;;;;;;;43.08;24.38;;;14.70;94.90;;;;;;5050443;28;20045;-36
2021/11/05 06:11:36;;;;;;;42.03;24.63;;;14.70;94.80;;;;;;5041307;28;20083;-38
2021/11/05 06:14:02;;;;;;;39.97;20.65;;;14.70;94.80;;;;;;5041483;28;20079;-38
2021/11/05 06:16:28;;;;;;;34.80;20.77;;;14.80;94.80;;;;;;5041510;28;20037;-38
2021/11/05 06:18:54;;;;;;;40.00;21.10;;;14.70;94.80;;;;;;5042911;28;20328;-35
2021/11/05 06:21:23;;;;;;;33.47;18.63;;;14.80;94.80;;;;;;5058183;28;20037;-37
2021/11/05 06:23:49;;;;;;;35.33;18.52;;;14.80;94.70;;;;;;5057924;28;20045;-35
2021/11/05 06:26:14;;;;;;;40.65;21.83;;;14.80;94.60;;;;;;5057795;28;20402;-37
2021/11/05 06:28:40;;;;;;;43.53;23.65;;;14.80;94.60;;;;;;5057616;28;20041;-35
2021/11/05 06:31:06;;;;;;;38.45;20.08;;;14.90;94.60;;;;;;5057903;28;20029;-36
2021/11/05 06:33:31;;;;;;;32.40;19.30;;;14.80;94.50;;;;;;5057208;28;20033;-36
2021/11/05 06:35:57;;;;;;;31.48;19.38;;;14.90;94.50;;;;;;5057733;28;20037;-36
2021/11/05 06:38:23;;;;;;;33.40;18.48;;;14.90;94.40;;;;;;5056936;28;20037;-35
2021/11/05 06:40:48;;;;;;;35.85;18.73;;;14.90;94.40;;;;;;5057412;28;20037;-36
2021/11/05 06:43:14;;;;;;;30.77;16.88;;;14.90;94.30;;;;;;5057252;28;20123;-38
2021/11/05 06:45:39;;;;;;;30.52;17.75;;;14.90;94.30;;;;;;5057387;28;20438;-37
2021/11/05 06:48:05;;;;;;;34.08;17.58;;;14.90;94.30;;;;;;5057429;28;20311;-38
2021/11/05 06:50:31;;;;;;;30.20;18.25;;;14.90;94.20;;;;;;5057913;28;20477;-36
2021/11/05 06:52:56;;;;;;;32.30;18.40;;;15.00;94.20;;;;;;5057341;28;20054;-37
2021/11/05 06:55:22;;;;;;;30.40;17.88;;;15.00;94.20;;;;;;5057293;28;20053;-36
2021/11/05 06:57:48;;;;;;;31.45;19.10;;;15.00;94.10;;;;;;5057598;28;20032;-36
2021/11/05 07:00:14;;;;;;;29.90;18.23;;;15.00;94.10;;;;;;5058032;28;20415;-38
2021/11/05 07:02:43;;;;;;;31.85;18.55;;;15.00;94.10;;;;;;5056152;28;20041;-38
2021/11/05 07:05:10;;;;;;;28.77;18.25;;;15.00;94.10;;;;;;5057439;28;20037;-36
2021/11/05 07:07:36;;;;;;;33.53;18.25;;;15.10;94.10;;;;;;5052535;28;20041;-35
2021/11/05 07:10:03;;;;;;;31.20;18.73;;;15.10;94.00;;;;;;5044837;28;20079;-35
2021/11/05 07:12:28;;;;;;;31.02;18.20;;;15.10;94.00;;;;;;5037214;28;20037;-37
2021/11/05 07:14:54;;;;;;;28.63;17.50;;;15.10;94.00;;;;;;5037699;28;20033;-37
2021/11/05 07:17:20;;;;;;;35.70;20.48;;;15.10;94.00;;;;;;5037295;28;20349;-36
2021/11/05 07:19:45;;;;;;;39.60;20.55;;;15.10;94.00;;;;;;5037456;28;20036;-37
2021/11/05 07:22:11;;;;;;;40.08;23.48;;;15.10;94.00;;;;;;5037219;28;20037;-36
2021/11/05 07:24:37;;;;;;;29.67;18.23;;;15.10;94.00;;;;;;5036745;28;20112;-35
2021/11/05 07:27:03;;;;;;;38.28;19.92;;;15.20;94.00;;;;;;5036903;28;20330;-36
2021/11/05 07:29:31;;;;;;;35.67;19.25;;;15.20;94.00;;;;;;5036455;28;20391;-36
2021/11/05 07:31:59;;;;;;;37.30;19.27;;;15.20;94.00;;;;;;5036764;28;20111;-37
2021/11/05 07:34:32;;;;;;;34.85;20.70;;;15.20;94.00;;;;;;5036971;28;20026;-37
2021/11/05 07:37:02;;;;;;;40.15;23.65;;;15.20;94.00;;;;;;5036480;28;20039;-38
2021/11/05 07:39:29;;;;;;;36.80;20.73;;;15.20;94.00;;;;;;5037080;28;20123;-35
2021/11/05 07:41:55;;;;;;;35.30;21.73;;;15.20;94.10;;;;;;5036322;28;20037;-37
2021/11/05 07:44:21;;;;;;;40.15;21.05;;;15.30;94.10;;;;;;5036900;28;20374;-36
2021/11/05 07:46:47;;;;;;;35.38;20.08;;;15.30;94.10;;;;;;5036321;28;20037;-37
2021/11/05 07:49:14;;;;;;;31.40;20.38;;;15.30;94.10;;;;;;5035365;28;20026;-35
2021/11/05 07:51:40;;;;;;;35.85;19.73;;;15.40;94.00;;;;;;5034481;28;20059;-35
2021/11/05 07:54:07;;;;;;;34.85;19.77;;;15.40;93.90;;;;;;5036486;28;20424;-36
2021/11/05 07:56:33;;;;;;;35.05;19.10;;;15.40;93.90;;;;;;5036090;28;20052;-38
2021/11/05 07:58:59;;;;;;;36.00;20.00;;;15.40;93.70;;;;;;5035337;28;20033;-37
2021/11/05 08:01:25;;;;;;;34.58;19.13;;;15.50;93.60;;;;;;5036205;28;20034;-38
2021/11/05 08:03:50;;;;;;;31.98;18.67;;;15.50;93.60;;;;;;5036591;28;20045;-38
2021/11/05 08:06:17;;;;;;;30.73;18.88;;;15.50;93.50;;;;;;5035803;28;20380;-38
2021/11/05 08:08:43;;;;;;;30.58;18.83;;;15.50;93.50;;;;;;5036186;28;20090;-36
2021/11/05 08:11:10;;;;;;;33.38;20.73;;;15.60;93.50;;;;;;5035951;28;20112;-36
2021/11/05 08:13:36;;;;;;;38.00;21.05;;;15.60;93.40;;;;;;5035873;28;20412;-36
2021/11/05 08:16:02;;;;;;;35.05;21.63;;;15.60;93.40;;;;;;5035757;28;20036;-36
2021/11/05 08:18:28;;;;;;;34.75;19.42;;;15.60;93.30;;;;;;5035975;28;20022;-38
2021/11/05 08:20:54;;;;;;;31.10;17.85;;;15.70;93.30;;;;;;5044944;28;20036;-37
2021/11/05 08:23:20;;;;;;;28.70;17.45;;;15.70;93.10;;;;;;5055522;28;20104;-39
2021/11/05 08:25:47;;;;;;;28.48;17.70;;;15.70;93.00;;;;;;5055480;28;20037;-38
2021/11/05 08:28:15;;;;;;;28.67;17.95;;;15.60;93.00;;;;;;5050916;28;20021;-40
2021/11/05 08:30:40;;;;;;;31.13;18.52;;;15.70;93.00;;;;;;5046258;28;20075;-36
2021/11/05 08:33:06;;;;;;;31.00;19.10;;;15.70;93.20;;;;;;5055408;28;20021;-37
2021/11/05 08:35:32;;;;;;;28.08;18.08;;;15.70;92.90;;;;;;5055662;28;20041;-39
2021/11/05 08:38:00;;;;;;;28.45;18.08;;;15.70;92.90;;;;;;5055421;28;20317;-37
2021/11/05 08:40:26;;;;;;;32.47;18.92;;;15.70;92.90;;;;;;5055180;28;20033;-36
2021/11/05 08:42:52;;;;;;;27.65;18.33;;;15.70;92.90;;;;;;5055123;28;20090;-37
2021/11/05 08:45:18;;;;;;;32.45;19.10;;;15.70;92.90;;;;;;5054589;28;20318;-36
2021/11/05 08:47:44;;;;;;;35.45;19.52;;;15.70;92.80;;;;;;5055092;28;20063;-36
2021/11/05 08:50:22;;;;;;;31.55;19.35;;;15.70;92.80;;;;;;5055587;28;20052;-37
2021/11/05 08:52:49;;;;;;;31.75;19.75;;;15.80;92.80;;;;;;5055039;28;20037;-38
2021/11/05 08:55:16;;;;;;;31.10;19.75;;;15.80;92.90;;;;;;5055056;28;20048;-36
2021/11/05 08:57:41;;;;;;;29.90;18.83;;;15.80;92.90;;;;;;5048291;28;20032;-36
2021/11/05 09:00:14;;;;;;;32.08;18.13;;;15.80;92.90;;;;;;5035992;28;20033;-36
2021/11/05 09:02:41;;;;;;;29.55;18.25;;;15.80;92.90;;;;;;5035244;28;20026;-36
2021/11/05 09:05:07;;;;;;;35.63;21.30;;;15.80;92.90;;;;;;5034013;28;20044;-36
2021/11/05 09:07:33;;;;;;;33.78;22.55;;;15.80;92.80;;;;;;5035312;28;20037;-38
2021/11/05 09:09:59;;;;;;;32.67;20.98;;;15.90;92.80;;;;;;5035464;28;20036;-37
2021/11/05 09:12:25;;;;;;;31.42;19.08;;;15.90;92.70;;;;;;5035313;28;20043;-38
2021/11/05 09:14:51;;;;;;;31.92;20.50;;;15.90;92.70;;;;;;5035428;28;20382;-38
2021/11/05 09:17:17;;;;;;;32.78;20.38;;;15.90;92.70;;;;;;5035111;28;20061;-38
2021/11/05 09:19:43;;;;;;;35.13;19.55;;;15.90;92.70;;;;;;5035219;28;20060;-35
2021/11/05 09:22:09;;;;;;;30.63;18.02;;;15.90;92.70;;;;;;5034708;28;20072;-36
2021/11/05 09:24:34;;;;;;;34.00;17.60;;;15.90;92.70;;;;;;5034784;28;20029;-37
2021/11/05 09:27:00;;;;;;;32.90;20.88;;;16.00;92.90;;;;;;5035265;28;20046;-36
2021/11/05 09:29:26;;;;;;;32.63;19.85;;;15.90;92.70;;;;;;5044856;28;20056;-37
2021/11/05 09:31:52;;;;;;;31.63;19.95;;;16.00;92.70;;;;;;5035658;28;20060;-37
2021/11/05 09:34:18;;;;;;;30.80;19.58;;;16.00;92.70;;;;;;5035438;28;20343;-36
2021/11/05 09:36:44;;;;;;;31.90;19.80;;;16.00;92.70;;;;;;5033611;28;20121;-36
2021/11/05 09:39:09;;;;;;;36.45;22.08;;;16.00;92.70;;;;;;5035233;28;20030;-36
2021/11/05 09:41:35;;;;;;;29.92;19.23;;;16.10;92.60;;;;;;5034534;28;20044;-37
2021/11/05 09:44:02;;;;;;;33.03;19.02;;;16.10;92.60;;;;;;5035383;28;20037;-37
2021/11/05 09:46:29;;;;;;;37.25;20.40;;;16.10;92.60;;;;;;5034611;28;20033;-35
2021/11/05 09:48:55;;;;;;;34.28;18.48;;;16.20;92.60;;;;;;5035135;28;20036;-39
2021/11/05 09:51:21;;;;;;;33.58;20.95;;;16.20;92.50;;;;;;5034523;28;20033;-37
2021/11/05 09:53:48;;;;;;;31.48;19.45;;;16.20;92.40;;;;;;5034694;28;20532;-35
2021/11/05 09:56:14;;;;;;;32.70;18.13;;;16.20;92.30;;;;;;5034497;28;20085;-38
2021/11/05 09:58:44;;;;;;;28.95;18.55;;;16.30;92.30;;;;;;5038930;28;20061;-36
2021/11/05 10:01:11;;;;;;;29.88;18.17;;;16.30;92.40;;;;;;5038005;28;20044;-36
2021/11/05 10:03:37;;;;;;;34.53;18.17;;;16.30;92.40;;;;;;5038385;28;20091;-37
2021/11/05 10:06:07;;;;;;;29.27;18.83;;;16.40;92.40;;;;;;5038184;28;20337;-38
2021/11/05 10:08:34;;;;;;;29.05;17.88;;;16.40;92.20;;;;;;5038420;28;20063;-38
2021/11/05 10:11:18;;;;;;;24.15;16.52;;;16.40;92.10;;;;;;5037714;28;20026;-39
2021/11/05 10:13:44;;;;;;;36.83;19.65;;;16.40;92.10;;;;;;5037719;28;20021;-36
2021/11/05 10:16:14;;;;;;;29.60;18.92;;;16.50;92.10;;;;;;5037554;28;20156;-38
2021/11/05 10:19:05;;;;;;;30.95;18.98;;;16.50;92.00;;;;;;5038275;28;20076;-37
2021/11/05 10:21:45;;;;;;;29.65;18.90;;;16.40;91.90;;;;;;5037393;28;20164;-37
2021/11/05 10:24:17;;;;;;;35.38;19.23;;;16.50;91.80;;;;;;5038180;28;20033;-36
2021/11/05 10:26:44;;;;;;;28.75;18.30;;;16.50;92.10;;;;;;5044448;28;20463;-36
2021/11/05 10:29:26;;;;;;;30.90;19.25;;;16.50;91.80;;;;;;5041246;28;20025;-37
2021/11/05 10:32:07;;;;;;;29.08;19.52;;;16.60;91.80;;;;;;5037296;28;20104;-37
2021/11/05 10:35:12;;;;;;;32.55;18.88;;;16.60;92.00;;;;;;5038003;28;20409;-38
2021/11/05 10:37:41;;;;;;;34.17;19.70;;;16.60;91.70;;;;;;5036596;28;20041;-37
2021/11/05 10:40:08;;;;;;;32.42;19.80;;;16.50;91.70;;;;;;5038149;28;20108;-35
2021/11/05 10:42:36;;;;;;;32.92;19.58;;;16.60;91.80;;;;;;5037428;28;20037;-37
2021/11/05 10:45:22;;;;;;;33.70;19.30;;;16.60;91.70;;;;;;5038135;28;20034;-37
2021/11/05 10:47:54;;;;;;;29.25;19.23;;;16.60;91.50;;;;;;5037360;28;20449;-37
2021/11/05 10:50:21;;;;;;;34.72;20.55;;;16.60;91.50;;;;;;5037371;28;20080;-38
2021/11/05 10:53:10;;;;;;;31.77;20.00;;;16.60;91.60;;;;;;5037293;28;20429;-37
2021/11/05 10:55:41;;;;;;;31.33;19.90;;;16.60;91.40;;;;;;5036230;28;20124;-36
2021/11/05 10:58:14;;;;;;;31.30;19.67;;;16.60;91.50;;;;;;5037536;28;20041;-37
2021/11/05 11:00:41;;;;;;;37.58;20.85;;;16.60;91.50;;;;;;5037796;28;20057;-39
2021/11/05 11:03:32;;;;;;;37.70;20.88;;;16.60;91.50;;;;;;5037143;28;20057;-41
2021/11/05 11:05:59;;;;;;;34.72;20.65;;;16.70;91.50;;;;;;5037255;28;20033;-39
2021/11/05 11:08:28;;;;;;;35.33;21.02;;;16.70;91.50;;;;;;5036509;28;20033;-37
2021/11/05 11:10:57;;;;;;;35.47;21.33;;;16.70;91.50;;;;;;5036861;28;20382;-38
2021/11/05 11:13:33;;;;;;;35.13;21.23;;;16.70;91.50;;;;;;5036881;28;20441;-38
2021/11/05 11:15:59;;;;;;;38.47;21.50;;;16.70;91.40;;;;;;5037161;28;20057;-36
2021/11/05 11:18:26;;;;;;;36.80;22.25;;;16.70;91.40;;;;;;5035901;28;20108;-36
2021/11/05 11:20:51;;;;;;;37.53;23.17;;;16.80;91.50;;;;;;5037090;28;20051;-37
2021/11/05 11:23:17;;;;;;;35.95;22.90;;;16.80;91.50;;;;;;5036871;28;20104;-38
2021/11/05 11:25:43;;;;;;;35.22;24.00;;;16.80;91.50;;;;;;5036696;28;20037;-38
2021/11/05 11:28:09;;;;;;;40.67;26.25;;;16.80;91.30;;;;;;5036751;28;20029;-36
2021/11/05 11:30:36;;;;;;;42.10;24.17;;;16.90;91.30;;;;;;5037361;28;20100;-36
2021/11/05 11:33:02;;;;;;;40.50;25.73;;;16.90;91.20;;;;;;5036871;28;20060;-38
2021/11/05 11:35:28;;;;;;;42.83;24.67;;;16.90;91.20;;;;;;5037133;28;20414;-39
2021/11/05 11:37:56;;;;;;;41.40;24.27;;;16.90;91.10;;;;;;5036550;28;20081;-38
2021/11/05 11:40:21;;;;;;;42.88;24.38;;;16.90;91.10;;;;;;5036960;28;20072;-37
2021/11/05 11:42:49;;;;;;;36.17;22.48;;;16.90;91.00;;;;;;5036414;28;20053;-37
2021/11/05 11:45:16;;;;;;;39.08;24.38;;;16.90;91.00;;;;;;5036922;28;20037;-35
2021/11/05 11:47:48;;;;;;;42.88;23.80;;;17.00;91.10;;;;;;5036103;28;20124;-37
2021/11/05 11:50:22;;;;;;;39.50;24.55;;;17.00;91.00;;;;;;5036380;28;20029;-38
2021/11/05 11:53:03;;;;;;;39.38;24.00;;;17.00;90.90;;;;;;5036425;28;20041;-38
2021/11/05 11:55:31;;;;;;;43.33;25.77;;;17.00;90.80;;;;;;5036270;28;20338;-38
2021/11/05 11:58:18;;;;;;;42.20;24.95;;;17.10;90.90;;;;;;5036052;28;20034;-39
2021/11/05 12:00:47;;;;;;;40.35;24.60;;;17.10;90.70;;;;;;5039084;28;20041;-36
2021/11/05 12:03:16;;;;;;;45.40;27.60;;;17.10;90.80;;;;;;5044468;28;20029;-38
2021/11/05 12:05:44;;;;;;;42.15;25.30;;;17.10;90.80;;;;;;5036464;28;20116;-38
2021/11/05 12:08:22;;;;;;;39.40;25.05;;;17.10;90.70;;;;;;5035806;28;20040;-37
2021/11/05 12:11:17;;;;;;;37.90;24.77;;;17.10;90.60;;;;;;5036043;28;20045;-38
2021/11/05 12:14:07;;;;;;;43.42;24.27;;;17.20;90.50;;;;;;5035961;28;20095;-38
2021/11/05 12:16:33;;;;;;;41.70;25.10;;;17.10;90.40;;;;;;5036007;28;20136;-39
2021/11/05 12:19:03;;;;;;;39.05;22.92;;;17.10;90.40;;;;;;5035931;28;20104;-39
2021/11/05 12:21:34;;;;;;;42.05;25.00;;;17.10;90.40;;;;;;5035690;28;20044;-37
2021/11/05 12:24:15;;;;;;;38.83;21.55;;;17.10;90.30;;;;;;5036391;28;20021;-38
2021/11/05 12:26:49;;;;;;;40.45;23.92;;;17.10;90.20;;;;;;5035720;28;20033;-38
2021/11/05 12:29:33;;;;;;;34.05;23.13;;;17.10;90.10;;;;;;5036189;28;20022;-35